Terminal Aerodrome Forecast
Issued by NWS Mt. Holly, NJ

Home | Current Version | Previous Version | Text Only | Print | Product List | Glossary On
Versions: 1 2 3 4 5 6 7 8 9 10 11 12 13 14 15 16 17 18 19 20 21 22 23 24 25 26 27 28 29
160
FTUS41 KPHI 201728
TAFPHL
TAF
KPHL 201728Z 2018/2124 30009KT P6SM SKC
     FM202000 27008KT P6SM SKC
     FM202300 25006KT P6SM SKC
     FM210400 VRB03KT P6SM SKC
     FM211300 21007KT P6SM SCT250
     FM211800 20010KT P6SM FEW050 SCT250=

USA.gov is the U.S. government's official web portal to all federal, state and local government web resources and services.